createdAt,value
2023-01-04T00:01:34.112Z,4.05
2023-01-04T00:04:02.041Z,3.98
2023-01-04T00:06:30.372Z,3.87
2023-01-04T00:08:57.764Z,3.89
2023-01-04T00:11:25.123Z,3.93
2023-01-04T00:13:56.193Z,3.83
2023-01-04T00:16:25.831Z,3.78
2023-01-04T00:18:55.299Z,3.87
2023-01-04T00:21:25.481Z,3.94
2023-01-04T00:23:55.158Z,4.01
2023-01-04T00:26:25.687Z,4.00
2023-01-04T00:29:02.009Z,3.97
2023-01-04T00:31:29.866Z,4.14
2023-01-04T00:33:59.593Z,4.19
2023-01-04T00:36:27.785Z,4.25
2023-01-04T00:39:08.785Z,4.47
2023-01-04T00:42:01.622Z,4.38
2023-01-04T00:44:30.043Z,4.25
2023-01-04T00:46:59.589Z,4.22
2023-01-04T00:49:27.722Z,4.18
2023-01-04T00:51:56.345Z,3.97
2023-01-04T00:54:24.396Z,3.87
2023-01-04T00:56:51.882Z,3.70
2023-01-04T00:59:21.433Z,3.55
2023-01-04T01:01:49.558Z,3.54
2023-01-04T01:04:20.627Z,3.44
2023-01-04T01:06:48.919Z,3.52
2023-01-04T01:09:17.534Z,3.48
2023-01-04T01:11:45.329Z,3.66
2023-01-04T01:14:15.743Z,3.75
2023-01-04T01:16:59.163Z,3.86
2023-01-04T01:19:28.871Z,3.80
2023-01-04T01:21:57.541Z,3.78
2023-01-04T01:24:25.735Z,3.57
2023-01-04T01:26:53.184Z,3.70
2023-01-04T01:29:20.625Z,3.70
2023-01-04T01:31:48.088Z,3.63
2023-01-04T01:34:15.602Z,3.52
2023-01-04T01:36:44.096Z,3.52
2023-01-04T01:39:11.708Z,3.51
2023-01-04T01:41:47.268Z,3.43
2023-01-04T01:44:42.352Z,3.36
2023-01-04T01:47:28.162Z,3.40
2023-01-04T01:49:58.763Z,3.40
2023-01-04T01:52:33.422Z,3.40
2023-01-04T01:55:04.780Z,3.46
2023-01-04T01:57:36.805Z,3.49
2023-01-04T02:00:09.068Z,3.47
2023-01-04T02:02:53.189Z,3.53
2023-01-04T02:05:22.033Z,3.51
2023-01-04T02:07:51.078Z,3.50
2023-01-04T02:10:19.437Z,3.44
2023-01-04T02:12:47.612Z,3.38
2023-01-04T02:15:15.287Z,3.24
2023-01-04T02:18:01.633Z,3.12
2023-01-04T02:20:32.421Z,3.09
2023-01-04T02:23:24.478Z,3.08
2023-01-04T02:26:19.918Z,3.06
2023-01-04T02:29:15.739Z,2.99
2023-01-04T02:31:46.128Z,2.82
2023-01-04T02:34:43.126Z,2.69
2023-01-04T02:37:25.693Z,2.65
2023-01-04T02:40:12.378Z,2.63
2023-01-04T02:43:19.231Z,2.68
2023-01-04T02:45:56.255Z,2.78
2023-01-04T02:48:42.160Z,2.91
2023-01-04T02:51:34.394Z,3.00
2023-01-04T02:54:13.689Z,3.06
2023-01-04T02:57:08.579Z,3.08
2023-01-04T03:00:23.527Z,2.97
2023-01-04T03:03:35.181Z,2.84
2023-01-04T03:06:32.183Z,2.72
2023-01-04T03:09:09.321Z,2.62
2023-01-04T03:12:06.938Z,2.58
2023-01-04T03:14:43.960Z,2.52
2023-01-04T03:17:14.837Z,2.69
2023-01-04T03:19:57.628Z,2.78
2023-01-04T03:23:00.238Z,2.84
2023-01-04T03:26:17.841Z,2.95
2023-01-04T03:29:07.688Z,2.95
2023-01-04T03:32:01.319Z,2.83
2023-01-04T03:34:49.727Z,2.56
2023-01-04T03:37:24.983Z,2.40
2023-01-04T03:40:44.296Z,2.27
2023-01-04T03:43:42.785Z,2.13
2023-01-04T03:46:36.313Z,2.06
2023-01-04T03:49:30.492Z,1.95
2023-01-04T03:52:02.368Z,1.84
2023-01-04T03:54:44.159Z,1.77
2023-01-04T03:57:15.035Z,1.78
2023-01-04T03:59:50.876Z,1.77
2023-01-04T04:02:24.330Z,1.92
2023-01-04T04:05:10.632Z,1.94
2023-01-04T04:07:56.608Z,1.89
2023-01-04T04:10:23.992Z,1.98
2023-01-04T04:12:52.475Z,2.11
2023-01-04T04:15:19.814Z,2.12
2023-01-04T04:17:47.928Z,2.05
2023-01-04T04:20:15.559Z,1.94
2023-01-04T04:22:43.459Z,1.87
2023-01-04T04:25:11.107Z,1.87
2023-01-04T04:27:38.238Z,1.93
2023-01-04T04:30:06.254Z,1.93
2023-01-04T04:32:33.605Z,1.99
2023-01-04T04:35:02.092Z,2.18
2023-01-04T04:37:32.129Z,2.28
2023-01-04T04:39:59.649Z,2.29
2023-01-04T04:42:27.082Z,2.18
2023-01-04T04:44:54.464Z,2.20
2023-01-04T04:47:24.793Z,2.21
2023-01-04T04:49:52.211Z,2.34
2023-01-04T04:52:19.700Z,2.41
2023-01-04T04:54:47.193Z,2.43
2023-01-04T04:57:14.560Z,2.48
2023-01-04T04:59:41.926Z,2.61
2023-01-04T05:02:09.285Z,2.77
2023-01-04T05:04:38.024Z,2.87
2023-01-04T05:07:12.037Z,2.93
2023-01-04T05:09:39.852Z,2.93
2023-01-04T05:12:30.263Z,3.07
2023-01-04T05:14:57.646Z,3.06
2023-01-04T05:17:25.134Z,3.08
2023-01-04T05:19:52.480Z,3.19
2023-01-04T05:22:21.683Z,3.22
2023-01-04T05:24:49.007Z,3.15
2023-01-04T05:27:16.416Z,3.06
2023-01-04T05:30:02.530Z,3.04
2023-01-04T05:33:02.261Z,3.05
2023-01-04T05:35:29.716Z,3.05
2023-01-04T05:38:10.175Z,3.13
2023-01-04T05:40:39.836Z,3.12
2023-01-04T05:43:07.407Z,3.15
2023-01-04T05:45:36.048Z,3.21
2023-01-04T05:48:03.835Z,3.15
2023-01-04T05:50:31.438Z,3.15
2023-01-04T05:53:06.246Z,3.18
2023-01-04T05:55:34.501Z,3.18
2023-01-04T05:58:01.877Z,3.22
2023-01-04T06:00:32.637Z,3.26
2023-01-04T06:03:00.586Z,3.26
2023-01-04T06:05:48.781Z,3.26
2023-01-04T06:08:16.595Z,3.24
2023-01-04T06:10:44.022Z,3.36
2023-01-04T06:13:11.436Z,3.45
2023-01-04T06:15:43.086Z,3.54
2023-01-04T06:18:13.576Z,3.59
2023-01-04T06:20:43.623Z,3.65
2023-01-04T06:23:44.470Z,3.82
2023-01-04T06:26:11.807Z,3.86
2023-01-04T06:28:41.252Z,3.91
2023-01-04T06:31:10.288Z,4.04
2023-01-04T06:33:39.008Z,4.05
2023-01-04T06:36:07.146Z,4.26
2023-01-04T06:38:46.602Z,4.40
2023-01-04T06:41:14.182Z,4.34
2023-01-04T06:43:43.625Z,4.41
2023-01-04T06:46:14.983Z,4.24
2023-01-04T06:48:42.916Z,4.22
2023-01-04T06:51:11.034Z,4.19
2023-01-04T06:53:38.795Z,4.30
2023-01-04T06:56:08.193Z,4.27
2023-01-04T06:58:48.922Z,4.18
2023-01-04T07:01:16.499Z,4.24
2023-01-04T07:03:43.999Z,4.26
2023-01-04T07:06:11.748Z,4.17
2023-01-04T07:08:39.126Z,4.04
2023-01-04T07:11:06.571Z,3.96
2023-01-04T07:13:34.059Z,3.98
2023-01-04T07:16:01.611Z,3.89
2023-01-04T07:18:41.282Z,3.89
2023-01-04T07:21:08.575Z,3.97
2023-01-04T07:23:36.000Z,3.95
2023-01-04T07:26:20.699Z,4.05
2023-01-04T07:29:06.616Z,4.15
2023-01-04T07:31:34.371Z,4.15
2023-01-04T07:34:01.771Z,4.08
2023-01-04T07:36:29.098Z,4.14
2023-01-04T07:38:56.845Z,4.30
2023-01-04T07:41:24.290Z,4.44
2023-01-04T07:43:51.871Z,4.56
2023-01-04T07:46:19.899Z,4.52
2023-01-04T07:48:53.810Z,4.48
2023-01-04T07:51:23.137Z,4.55
2023-01-04T07:53:50.969Z,4.55
2023-01-04T07:56:19.065Z,4.71
2023-01-04T07:58:46.378Z,4.70
2023-01-04T08:01:30.068Z,4.82
2023-01-04T08:03:57.495Z,4.77
2023-01-04T08:06:52.856Z,4.75
2023-01-04T08:09:20.323Z,4.91
2023-01-04T08:11:47.810Z,4.93
2023-01-04T08:14:15.306Z,5.18
2023-01-04T08:16:43.525Z,5.22
2023-01-04T08:19:22.052Z,5.19
2023-01-04T08:21:49.579Z,5.13
2023-01-04T08:24:18.873Z,5.05
2023-01-04T08:26:46.749Z,5.02
2023-01-04T08:29:14.357Z,4.93
2023-01-04T08:31:42.623Z,4.97
2023-01-04T08:34:10.822Z,5.08
2023-01-04T08:36:48.597Z,5.29
2023-01-04T08:39:16.700Z,5.47
2023-01-04T08:42:20.350Z,5.67
2023-01-04T08:44:40.225Z,5.76
2023-01-04T08:47:07.980Z,5.80
2023-01-04T08:49:35.244Z,5.92
2023-01-04T08:52:12.896Z,6.09
2023-01-04T08:54:40.268Z,6.12
2023-01-04T08:57:07.689Z,6.15
2023-01-04T08:59:35.198Z,6.15
2023-01-04T09:02:05.668Z,6.16
2023-01-04T09:04:35.102Z,6.07
2023-01-04T09:07:02.557Z,6.05
2023-01-04T09:09:30.392Z,6.11
2023-01-04T09:11:59.854Z,6.19
2023-01-04T09:14:27.250Z,6.04
2023-01-04T09:16:54.681Z,6.02
2023-01-04T09:19:32.996Z,6.01
2023-01-04T09:22:00.554Z,6.05
2023-01-04T09:24:29.820Z,6.05
2023-01-04T09:26:57.183Z,6.10
2023-01-04T09:29:26.125Z,6.06
2023-01-04T09:31:54.572Z,6.05
2023-01-04T09:34:22.767Z,5.97
2023-01-04T09:36:50.853Z,5.90
2023-01-04T09:39:23.213Z,5.96
2023-01-04T09:41:59.409Z,6.00
2023-01-04T09:47:50.022Z,5.91
2023-01-04T09:50:36.808Z,5.89
2023-01-04T09:53:18.675Z,5.90
2023-01-04T09:55:50.650Z,5.92
2023-01-04T09:58:36.886Z,6.01
2023-01-04T10:01:11.146Z,5.99
2023-01-04T10:03:42.092Z,6.08
2023-01-04T10:06:13.175Z,6.14
2023-01-04T10:08:42.574Z,6.14
2023-01-04T10:11:09.957Z,6.06
2023-01-04T10:14:21.727Z,6.02
2023-01-04T10:17:12.854Z,6.06
2023-01-04T10:21:18.794Z,5.83
2023-01-04T10:23:35.587Z,5.93
2023-01-04T10:26:13.582Z,5.87
2023-01-04T10:29:19.826Z,5.81
2023-01-04T10:32:03.446Z,5.91
2023-01-04T10:34:33.180Z,5.94
2023-01-04T10:37:36.780Z,5.97
2023-01-04T10:40:13.824Z,5.97
2023-01-04T10:42:44.148Z,5.92
2023-01-04T10:45:23.579Z,5.91
2023-01-04T10:48:02.546Z,5.94
2023-01-04T10:50:40.568Z,5.93
2023-01-04T10:53:32.031Z,5.92
2023-01-04T10:56:24.322Z,6.05
2023-01-04T10:59:03.322Z,6.03
2023-01-04T11:01:42.282Z,5.99
2023-01-04T11:04:37.133Z,5.97
2023-01-04T11:07:13.618Z,6.09
2023-01-04T11:09:55.731Z,6.14
2023-01-04T11:12:29.936Z,6.18
2023-01-04T11:14:57.750Z,6.17
2023-01-04T11:17:47.973Z,6.12
2023-01-04T11:20:15.711Z,6.18
2023-01-04T11:22:48.433Z,6.35
2023-01-04T11:25:35.147Z,6.28
2023-01-04T11:28:18.242Z,6.36
2023-01-04T11:30:53.583Z,6.34
2023-01-04T11:33:23.140Z,6.28
2023-01-04T11:36:00.024Z,6.34
2023-01-04T11:38:32.344Z,6.31
2023-01-04T11:41:05.843Z,6.40
2023-01-04T11:43:35.988Z,6.44
2023-01-04T11:46:06.045Z,6.45
2023-01-04T11:48:49.132Z,6.49
2023-01-04T11:51:18.221Z,6.53
2023-01-04T11:53:46.824Z,6.71
2023-01-04T11:56:18.840Z,6.68
2023-01-04T11:59:06.524Z,6.62
2023-01-04T12:01:36.542Z,6.57
2023-01-04T12:04:11.427Z,6.58
2023-01-04T12:06:45.625Z,6.54
2023-01-04T12:09:15.697Z,6.48
2023-01-04T12:11:47.254Z,6.40
2023-01-04T12:14:28.145Z,6.37
2023-01-04T12:16:58.457Z,6.38
2023-01-04T12:19:25.873Z,6.39
2023-01-04T12:21:56.443Z,6.47
2023-01-04T12:24:26.639Z,6.38
2023-01-04T12:26:54.549Z,6.51
2023-01-04T12:29:24.751Z,6.54
2023-01-04T12:32:12.842Z,6.50
2023-01-04T12:34:46.076Z,6.58
2023-01-04T12:37:38.274Z,6.52
2023-01-04T12:40:47.192Z,6.70
2023-01-04T12:43:24.818Z,6.70
2023-01-04T12:47:05.984Z,6.67
2023-01-04T12:49:34.302Z,6.72
2023-01-04T12:52:29.534Z,6.73
2023-01-04T12:54:58.390Z,6.71
2023-01-04T12:57:38.050Z,6.62
2023-01-04T13:00:11.973Z,6.62
2023-01-04T13:02:52.232Z,6.59
2023-01-04T13:08:12.731Z,6.67
2023-01-04T13:10:51.753Z,6.67
2023-01-04T13:13:28.336Z,6.71
2023-01-04T13:16:31.549Z,6.81
2023-01-04T13:19:04.467Z,6.88
2023-01-04T13:21:39.464Z,6.94
2023-01-04T13:24:34.268Z,7.00
2023-01-04T13:27:10.389Z,7.03
2023-01-04T13:29:37.811Z,7.07
2023-01-04T13:32:12.033Z,7.10
2023-01-04T13:34:47.379Z,7.12
2023-01-04T13:37:22.203Z,7.15
2023-01-04T13:39:52.077Z,7.19
2023-01-04T13:42:30.934Z,7.21
2023-01-04T13:47:56.075Z,7.39
2023-01-04T13:50:44.359Z,7.37
2023-01-04T13:53:22.931Z,7.39
2023-01-04T13:55:52.889Z,7.46
2023-01-04T13:58:22.607Z,7.35
2023-01-04T14:01:15.330Z,7.33
2023-01-04T14:04:04.745Z,7.35
2023-01-04T14:06:39.751Z,7.32
2023-01-04T14:09:10.543Z,7.41
2023-01-04T14:12:08.381Z,7.38
2023-01-04T14:14:59.241Z,7.39
2023-01-04T14:17:43.036Z,7.36
2023-01-04T14:20:14.209Z,7.37
2023-01-04T14:22:47.453Z,7.35
2023-01-04T14:25:48.639Z,7.30
2023-01-04T14:28:22.595Z,7.26
2023-01-04T14:30:59.786Z,7.26
2023-01-04T14:33:36.784Z,7.11
2023-01-04T14:36:07.750Z,7.02
2023-01-04T14:39:04.459Z,6.96
2023-01-04T14:41:36.131Z,7.04
2023-01-04T14:44:17.644Z,7.03
2023-01-04T14:46:48.874Z,7.09
2023-01-04T14:49:17.776Z,7.10
2023-01-04T14:51:48.638Z,7.13
2023-01-04T14:54:23.957Z,7.17
2023-01-04T14:56:56.760Z,7.20
2023-01-04T14:59:25.347Z,7.15
2023-01-04T15:01:54.368Z,7.10
2023-01-04T15:04:22.176Z,7.12
2023-01-04T15:06:58.876Z,7.08
2023-01-04T15:09:27.326Z,7.06
2023-01-04T15:11:55.049Z,6.94
2023-01-04T15:14:22.793Z,6.84
2023-01-04T15:16:50.373Z,6.71
2023-01-04T15:19:17.904Z,6.65
2023-01-04T15:21:45.428Z,6.75
2023-01-04T15:24:12.869Z,6.75
2023-01-04T15:26:40.607Z,6.82
2023-01-04T15:29:08.784Z,6.83
2023-01-04T15:31:39.817Z,6.81
2023-01-04T15:36:52.612Z,6.97
2023-01-04T15:39:20.042Z,6.94
2023-01-04T15:42:05.982Z,6.99
2023-01-04T15:44:33.502Z,6.98
2023-01-04T15:47:00.932Z,6.95
2023-01-04T15:49:31.392Z,6.95
2023-01-04T15:51:58.869Z,6.92
2023-01-04T15:54:27.789Z,6.99
2023-01-04T15:56:56.257Z,6.95
2023-01-04T15:59:24.843Z,6.98
2023-01-04T16:01:52.394Z,7.06
2023-01-04T16:04:19.912Z,7.09
2023-01-04T16:06:47.291Z,7.08
2023-01-04T16:09:15.332Z,7.07
2023-01-04T16:12:02.666Z,7.16
2023-01-04T16:14:30.209Z,7.21
2023-01-04T16:16:57.613Z,7.17
2023-01-04T16:19:24.995Z,7.28
2023-01-04T16:21:52.328Z,7.24
2023-01-04T16:24:45.426Z,7.29
2023-01-04T16:27:07.481Z,7.36
2023-01-04T16:29:34.975Z,7.30
2023-01-04T16:32:03.675Z,7.32
2023-01-04T16:34:31.532Z,7.42
2023-01-04T16:36:59.562Z,7.51
2023-01-04T16:39:57.225Z,7.49
2023-01-04T16:42:16.574Z,7.50
2023-01-04T16:44:44.396Z,7.48
2023-01-04T16:47:12.508Z,7.54
2023-01-04T16:49:45.094Z,7.57
2023-01-04T16:52:15.115Z,7.49
2023-01-04T16:54:43.765Z,7.57
2023-01-04T16:57:11.563Z,7.64
2023-01-04T16:59:39.390Z,7.66
2023-01-04T17:02:08.093Z,7.69
2023-01-04T17:04:38.021Z,7.71
2023-01-04T17:07:10.638Z,7.69
2023-01-04T17:09:41.445Z,7.66
2023-01-04T17:15:32.134Z,7.73
2023-01-04T17:17:45.696Z,7.78
2023-01-04T17:20:15.479Z,7.79
2023-01-04T17:22:43.342Z,7.83
2023-01-04T17:25:11.475Z,7.87
2023-01-04T17:27:40.125Z,7.81
2023-01-04T17:30:11.198Z,7.85
2023-01-04T17:32:43.956Z,7.91
2023-01-04T17:35:11.844Z,7.79
2023-01-04T17:37:42.058Z,7.69
2023-01-04T17:40:10.392Z,7.64
2023-01-04T17:42:44.079Z,7.68
2023-01-04T17:45:12.605Z,7.84
2023-01-04T17:47:43.063Z,7.98
2023-01-04T17:50:10.909Z,8.13
2023-01-04T17:52:38.651Z,8.14
2023-01-04T17:55:07.195Z,8.17
2023-01-04T17:57:35.697Z,8.17
2023-01-04T18:00:04.184Z,8.21
2023-01-04T18:02:33.714Z,8.24
2023-01-04T18:05:02.587Z,8.25
2023-01-04T18:07:30.698Z,8.36
2023-01-04T18:09:58.320Z,8.35
2023-01-04T18:12:26.189Z,8.43
2023-01-04T18:14:54.206Z,8.56
2023-01-04T18:17:23.729Z,8.52
2023-01-04T18:19:51.942Z,8.59
2023-01-04T18:22:19.862Z,8.53
2023-01-04T18:24:47.610Z,8.54
2023-01-04T18:27:25.141Z,8.55
2023-01-04T18:29:55.124Z,8.61
2023-01-04T18:32:25.305Z,8.58
2023-01-04T18:34:53.949Z,8.67
2023-01-04T18:37:22.007Z,8.75
2023-01-04T18:39:50.080Z,8.83
2023-01-04T18:42:17.814Z,8.88
2023-01-04T18:44:49.935Z,8.80
2023-01-04T18:47:20.109Z,8.94
2023-01-04T18:49:51.026Z,8.97
2023-01-04T18:52:18.874Z,8.95
2023-01-04T18:54:48.147Z,9.06
2023-01-04T18:57:16.247Z,9.01
2023-01-04T18:59:43.861Z,9.05
2023-01-04T19:02:17.153Z,9.03
2023-01-04T19:04:44.978Z,9.12
2023-01-04T19:07:12.400Z,9.06
2023-01-04T19:09:39.947Z,9.09
2023-01-04T19:12:07.344Z,9.15
2023-01-04T19:14:34.849Z,9.20
2023-01-04T19:17:02.295Z,9.23
2023-01-04T19:19:30.653Z,9.37
2023-01-04T19:21:57.897Z,9.42
2023-01-04T19:24:25.282Z,9.39
2023-01-04T19:26:52.649Z,9.39
2023-01-04T19:29:20.003Z,9.43
2023-01-04T19:31:47.932Z,9.37
2023-01-04T19:34:15.180Z,9.36
2023-01-04T19:36:42.551Z,9.35
2023-01-04T19:39:09.935Z,9.35
2023-01-04T19:41:38.349Z,9.36
2023-01-04T19:44:08.918Z,9.41
2023-01-04T19:46:40.635Z,9.32
2023-01-04T19:49:14.576Z,9.28
2023-01-04T19:51:47.401Z,9.28
2023-01-04T19:54:19.931Z,9.31
2023-01-04T19:56:52.234Z,9.25
2023-01-04T19:59:19.767Z,9.17
2023-01-04T20:01:47.201Z,9.27
2023-01-04T20:04:14.615Z,9.26
2023-01-04T20:06:42.556Z,9.25
2023-01-04T20:09:09.842Z,9.32
2023-01-04T20:11:37.025Z,9.38
2023-01-04T20:14:04.541Z,9.40
2023-01-04T20:16:38.341Z,9.46
2023-01-04T20:19:09.914Z,9.48
2023-01-04T20:21:37.038Z,9.40
2023-01-04T20:24:04.728Z,9.35
2023-01-04T20:26:32.157Z,9.35
2023-01-04T20:28:59.591Z,9.36
2023-01-04T20:31:27.269Z,9.35
2023-01-04T20:33:56.517Z,9.34
2023-01-04T20:36:29.538Z,9.31
2023-01-04T20:39:01.146Z,9.26
2023-01-04T20:41:29.367Z,9.16
2023-01-04T20:43:56.803Z,9.11
2023-01-04T20:46:27.396Z,9.06
2023-01-04T20:48:54.844Z,9.02
2023-01-04T20:51:24.803Z,9.02
2023-01-04T20:53:52.738Z,8.99
2023-01-04T20:56:25.070Z,8.96
2023-01-04T20:58:52.991Z,8.95
2023-01-04T21:01:21.616Z,8.91
2023-01-04T21:03:49.557Z,8.89
2023-01-04T21:06:17.827Z,8.95
2023-01-04T21:08:46.088Z,9.00
2023-01-04T21:11:14.396Z,9.03
2023-01-04T21:13:42.406Z,9.03
2023-01-04T21:16:11.412Z,9.03
2023-01-04T21:18:39.796Z,9.08
2023-01-04T21:21:09.548Z,9.32
2023-01-04T21:23:38.392Z,9.36
2023-01-04T21:26:07.562Z,9.41
2023-01-04T21:28:36.223Z,9.39
2023-01-04T21:31:09.869Z,9.28
2023-01-04T21:33:37.577Z,9.16
2023-01-04T21:36:17.607Z,9.03
2023-01-04T21:38:49.702Z,8.99
2023-01-04T21:41:17.430Z,9.01
2023-01-04T21:43:45.017Z,8.92
2023-01-04T21:46:14.990Z,8.86
2023-01-04T21:48:43.944Z,8.84
2023-01-04T21:51:13.020Z,8.81
2023-01-04T21:53:41.158Z,8.80
2023-01-04T21:56:14.302Z,8.81
2023-01-04T21:58:42.654Z,8.79
2023-01-04T22:01:17.606Z,8.87
2023-01-04T22:03:45.955Z,8.83
2023-01-04T22:06:14.275Z,8.92
2023-01-04T22:08:46.606Z,8.99
2023-01-04T22:11:15.980Z,9.09
2023-01-04T22:13:43.721Z,9.22
2023-01-04T22:16:13.982Z,9.28
2023-01-04T22:18:47.246Z,9.39
2023-01-04T22:21:18.307Z,9.37
2023-01-04T22:23:46.909Z,9.39
2023-01-04T22:26:14.281Z,9.49
2023-01-04T22:28:41.647Z,9.51
2023-01-04T22:31:12.056Z,9.56
2023-01-04T22:33:40.518Z,9.53
2023-01-04T22:36:17.095Z,9.50
2023-01-04T22:38:58.446Z,9.49
2023-01-04T22:41:28.489Z,9.53
2023-01-04T22:43:58.281Z,9.56
2023-01-04T22:46:28.081Z,9.55
2023-01-04T22:48:56.211Z,9.60
2023-01-04T22:51:27.595Z,9.55
2023-01-04T22:53:57.620Z,9.54
2023-01-04T22:56:25.882Z,9.60
2023-01-04T22:58:55.816Z,9.58
2023-01-04T23:01:25.656Z,9.65
2023-01-04T23:03:54.864Z,9.54
2023-01-04T23:06:24.132Z,9.59
2023-01-04T23:08:57.265Z,9.66
2023-01-04T23:11:26.252Z,9.72
2023-01-04T23:13:53.714Z,9.60
2023-01-04T23:16:26.191Z,9.59
2023-01-04T23:18:57.439Z,9.73
2023-01-04T23:21:27.199Z,9.66
2023-01-04T23:23:55.305Z,9.56
2023-01-04T23:26:25.531Z,9.56
2023-01-04T23:28:53.229Z,9.43
2023-01-04T23:31:25.940Z,9.34
2023-01-04T23:33:58.625Z,9.21
2023-01-04T23:36:50.509Z,9.18
2023-01-04T23:39:22.356Z,9.17
2023-01-04T23:41:52.143Z,9.09
2023-01-04T23:44:27.257Z,9.05
2023-01-04T23:47:01.306Z,9.10
2023-01-04T23:49:33.279Z,9.15
2023-01-04T23:52:01.926Z,9.15
2023-01-04T23:54:29.680Z,9.15
2023-01-04T23:56:57.132Z,9.24
2023-01-04T23:59:25.930Z,9.31
